YBUP weather

Bunyip Airport
Victoria, Australia

Public forecast

Using degrees Celsius for public forecast. Weather courtesy of forecast.io.

Closest aviation weather report (METAR) to Bunyip Airport

Closest report is Melbourne Essendon Airport, 43.8 nm (81.1 km) WNW. Retrieved 2019/11/14 04:00 UTC (59 minutes ago):

YMEN 140400Z AUTO 27013KT 270V350 9999 // BKN046 22/09 Q1013

Closest aviation forecast (TAF) to Bunyip Airport

Closest forecast is Melbourne International Airport, 47.7 nm (88.3 km) WNW. Retrieved 2019-11-14 00:00 UTC (5 hours ago):

TAF YMML 132305Z 1400/1506 28014KT 9999 SCT020 BKN030 FM140200 28014KT 9999 FEW030 BKN040 FM141200 28008KT 9999 BKN030 FM150200 26014KT 9999 -SHRA BKN030